createdAt,value
2019-02-15T00:00:59.178Z,28.42
2019-02-15T00:03:50.437Z,34.50
2019-02-15T00:06:35.552Z,27.05
2019-02-15T00:09:19.339Z,28.17
2019-02-15T00:12:10.445Z,34.30
2019-02-15T00:14:54.059Z,36.90
2019-02-15T00:18:04.147Z,28.05
2019-02-15T00:20:56.432Z,26.33
2019-02-15T00:23:47.658Z,31.52
2019-02-15T00:26:31.508Z,28.98
2019-02-15T00:29:22.523Z,30.10
2019-02-15T00:32:07.574Z,25.23
2019-02-15T00:34:58.755Z,28.07
2019-02-15T00:37:42.729Z,26.23
2019-02-15T00:40:33.948Z,27.60
2019-02-15T00:43:22.334Z,31.62
2019-02-15T00:46:29.064Z,29.80
2019-02-15T00:49:31.641Z,32.67
2019-02-15T00:52:41.635Z,36.20
2019-02-15T00:55:34.337Z,27.07
2019-02-15T00:58:44.321Z,28.95
2019-02-15T01:01:47.496Z,26.62
2019-02-15T01:04:57.558Z,25.75
2019-02-15T01:08:01.518Z,40.20
2019-02-15T01:10:52.445Z,27.07
2019-02-15T01:13:36.046Z,29.07
2019-02-15T01:16:27.079Z,36.33
2019-02-15T01:19:10.561Z,27.40
2019-02-15T01:22:01.738Z,26.00
2019-02-15T01:24:33.833Z,27.27
2019-02-15T01:27:44.168Z,25.80
2019-02-15T01:30:49.772Z,29.85
2019-02-15T01:33:59.868Z,34.50
2019-02-15T01:36:49.560Z,33.92
2019-02-15T01:39:59.542Z,33.05
2019-02-15T01:43:05.194Z,29.35
2019-02-15T01:46:15.164Z,27.50
2019-02-15T01:48:59.440Z,27.13
2019-02-15T01:51:50.493Z,25.62
2019-02-15T01:54:35.065Z,30.43
2019-02-15T01:57:26.159Z,27.15
2019-02-15T02:00:12.341Z,24.60
2019-02-15T02:03:03.530Z,21.07
2019-02-15T02:05:47.219Z,28.30
2019-02-15T02:08:38.452Z,28.85
2019-02-15T02:11:21.783Z,28.62
2019-02-15T02:14:13.089Z,31.02
2019-02-15T02:16:56.598Z,30.40
2019-02-15T02:19:47.694Z,25.95
2019-02-15T02:22:32.711Z,27.35
2019-02-15T02:25:23.914Z,22.62
2019-02-15T02:28:07.609Z,27.15
2019-02-15T02:30:53.003Z,28.17
2019-02-15T02:33:36.998Z,30.10
2019-02-15T02:36:47.779Z,25.35
2019-02-15T02:39:31.641Z,24.72
2019-02-15T02:42:22.793Z,25.57
2019-02-15T02:45:06.826Z,30.27
2019-02-15T02:47:39.017Z,27.42
2019-02-15T02:50:51.762Z,24.80
2019-02-15T02:53:37.518Z,27.10
2019-02-15T02:56:28.506Z,24.87
2019-02-15T02:59:12.385Z,28.17
2019-02-15T03:02:03.608Z,29.42
2019-02-15T03:04:47.551Z,23.85
2019-02-15T03:07:38.757Z,32.50
2019-02-15T03:10:22.053Z,28.40
2019-02-15T03:13:13.251Z,34.53
2019-02-15T03:15:57.298Z,34.80
2019-02-15T03:18:48.770Z,31.33
2019-02-15T03:21:33.067Z,27.98
2019-02-15T03:24:24.298Z,25.80
2019-02-15T03:27:08.466Z,31.42
2019-02-15T03:29:59.751Z,27.75
2019-02-15T03:32:44.668Z,28.40
2019-02-15T03:35:16.707Z,29.25
2019-02-15T03:41:41.297Z,28.10
2019-02-15T03:44:26.232Z,27.55
2019-02-15T03:47:36.256Z,34.08
2019-02-15T03:50:21.840Z,25.88
2019-02-15T03:53:13.033Z,33.15
2019-02-15T03:55:58.104Z,30.65
2019-02-15T03:58:49.336Z,30.32
2019-02-15T04:04:38.651Z,31.85
2019-02-15T04:07:22.892Z,31.70
2019-02-15T04:10:07.824Z,31.82
2019-02-15T04:12:58.921Z,25.25
2019-02-15T04:15:42.889Z,32.03
2019-02-15T04:18:34.033Z,31.48
2019-02-15T04:21:17.921Z,33.70
2019-02-15T04:24:09.154Z,30.08
2019-02-15T04:26:41.390Z,36.38
2019-02-15T04:29:13.315Z,30.68
2019-02-15T04:31:45.435Z,31.02
2019-02-15T04:34:17.581Z,32.95
2019-02-15T04:37:02.440Z,34.35
2019-02-15T04:39:46.848Z,46.25
2019-02-15T04:42:38.123Z,38.65
2019-02-15T04:45:22.211Z,34.45
2019-02-15T04:48:05.810Z,34.45
2019-02-15T04:50:57.237Z,42.25
2019-02-15T04:53:41.348Z,35.05
2019-02-15T04:56:32.456Z,37.78
2019-02-15T04:59:16.563Z,37.08
2019-02-15T05:02:07.743Z,33.28
2019-02-15T05:04:52.229Z,37.25
2019-02-15T05:07:43.407Z,32.60
2019-02-15T05:10:15.390Z,42.23
2019-02-15T05:13:06.795Z,38.60
2019-02-15T05:15:54.671Z,41.35
2019-02-15T05:18:45.889Z,47.23
2019-02-15T05:21:30.124Z,54.88
2019-02-15T05:24:13.706Z,73.92
2019-02-15T05:27:04.774Z,37.48
2019-02-15T05:29:48.709Z,36.20
2019-02-15T05:32:32.365Z,48.42
2019-02-15T05:35:17.308Z,35.30
2019-02-15T05:38:08.405Z,35.48
2019-02-15T05:40:52.204Z,33.28
2019-02-15T05:43:43.276Z,29.80
2019-02-15T05:46:26.868Z,34.35
2019-02-15T05:49:18.370Z,49.18
2019-02-15T05:55:05.355Z,40.17
2019-02-15T05:57:57.664Z,34.67
2019-02-15T06:00:42.555Z,34.83
2019-02-15T06:06:46.567Z,30.95
2019-02-15T06:09:30.360Z,38.53
2019-02-15T06:12:23.279Z,32.78
2019-02-15T06:14:57.380Z,32.60
2019-02-15T06:17:48.588Z,41.37
2019-02-15T06:20:32.892Z,33.38
2019-02-15T06:23:23.960Z,30.60
2019-02-15T06:26:08.564Z,27.22
2019-02-15T06:28:59.671Z,32.98
2019-02-15T06:31:43.145Z,44.40
2019-02-15T06:34:28.191Z,34.20
2019-02-15T06:37:19.295Z,34.83
2019-02-15T06:40:03.408Z,36.38
2019-02-15T06:42:35.565Z,32.30
2019-02-15T06:45:24.616Z,27.02
2019-02-15T06:48:12.271Z,30.68
2019-02-15T06:50:56.205Z,49.20
2019-02-15T06:53:39.608Z,29.65
2019-02-15T06:56:23.573Z,37.75
2019-02-15T06:59:33.547Z,33.88
2019-02-15T07:02:36.808Z,38.85
2019-02-15T07:05:28.179Z,48.52
2019-02-15T07:08:12.017Z,45.08
2019-02-15T07:11:04.821Z,34.45
2019-02-15T07:13:50.349Z,41.40
2019-02-15T07:16:41.618Z,39.35
2019-02-15T07:19:26.060Z,38.28
2019-02-15T07:25:19.104Z,55.20
2019-02-15T07:28:02.934Z,41.10
2019-02-15T07:30:54.219Z,73.60
2019-02-15T07:33:39.196Z,47.23
2019-02-15T07:36:30.438Z,63.73
2019-02-15T07:39:13.917Z,93.12
2019-02-15T07:42:05.067Z,28.12
2019-02-15T07:44:49.064Z,33.90
2019-02-15T07:47:40.392Z,59.55
2019-02-15T07:50:24.170Z,53.63
2019-02-15T07:53:15.473Z,40.50
2019-02-15T07:55:59.129Z,69.03
2019-02-15T07:58:50.250Z,51.25
2019-02-15T08:01:40.745Z,35.95
2019-02-15T08:04:24.437Z,31.25
2019-02-15T08:07:15.726Z,36.80
2019-02-15T08:09:59.705Z,30.12
2019-02-15T08:12:51.043Z,51.05
2019-02-15T08:15:23.670Z,28.65
2019-02-15T08:18:14.857Z,30.50
2019-02-15T08:20:58.874Z,34.88
2019-02-15T08:23:51.893Z,33.53
2019-02-15T08:26:35.573Z,33.73
2019-02-15T08:29:26.657Z,37.80
2019-02-15T08:32:10.212Z,29.90
2019-02-15T08:35:01.496Z,33.63
2019-02-15T08:37:45.818Z,30.92
2019-02-15T08:40:37.558Z,31.30
2019-02-15T08:43:41.916Z,37.80
2019-02-15T08:46:33.023Z,24.70
2019-02-15T08:49:15.120Z,32.05
2019-02-15T08:52:10.153Z,31.82
2019-02-15T08:54:54.251Z,25.75
2019-02-15T08:57:39.359Z,25.17
2019-02-15T09:00:30.470Z,23.38
2019-02-15T09:03:14.184Z,27.45
2019-02-15T09:06:05.398Z,28.47
2019-02-15T09:08:49.471Z,30.43
2019-02-15T09:11:40.596Z,29.65
2019-02-15T09:14:24.199Z,27.90
2019-02-15T09:17:15.250Z,31.17
2019-02-15T09:19:58.812Z,29.92
2019-02-15T09:22:50.042Z,33.78
2019-02-15T09:25:35.439Z,34.88
2019-02-15T09:28:45.579Z,39.67
2019-02-15T09:31:29.827Z,33.63
2019-02-15T09:34:01.902Z,37.98
2019-02-15T09:36:46.017Z,39.20
2019-02-15T09:39:29.358Z,43.63
2019-02-15T09:42:13.083Z,33.48
2019-02-15T09:45:04.389Z,34.55
2019-02-15T09:47:50.003Z,39.73
2019-02-15T09:50:41.212Z,29.98
2019-02-15T09:53:24.748Z,39.45
2019-02-15T09:56:08.858Z,32.95
2019-02-15T09:58:59.910Z,29.45
2019-02-15T10:01:44.011Z,27.58
2019-02-15T10:04:28.567Z,27.60
2019-02-15T10:07:19.793Z,25.77
2019-02-15T10:09:51.875Z,29.98
2019-02-15T10:12:42.994Z,21.17
2019-02-15T10:15:27.043Z,25.82
2019-02-15T10:18:18.298Z,26.87
2019-02-15T10:21:02.317Z,23.83
2019-02-15T10:23:53.570Z,30.27
2019-02-15T10:26:38.353Z,24.12
2019-02-15T10:29:29.522Z,31.52
2019-02-15T10:32:01.635Z,25.80
2019-02-15T10:34:34.214Z,22.77
2019-02-15T10:37:06.295Z,25.55
2019-02-15T10:39:57.619Z,23.70
2019-02-15T10:42:41.648Z,25.00
2019-02-15T10:45:32.923Z,24.80
2019-02-15T10:48:16.898Z,26.30
2019-02-15T10:51:08.064Z,23.85
2019-02-15T10:53:53.238Z,20.05
2019-02-15T10:56:44.350Z,21.33
2019-02-15T10:59:28.341Z,18.37
2019-02-15T11:02:19.675Z,16.70
2019-02-15T11:05:07.984Z,16.20
2019-02-15T11:08:02.193Z,15.35
2019-02-15T11:10:46.137Z,17.90
2019-02-15T11:13:37.280Z,16.10
2019-02-15T11:16:21.404Z,18.77
2019-02-15T11:19:33.217Z,15.70
2019-02-15T11:22:17.457Z,17.75
2019-02-15T11:25:02.814Z,16.65
2019-02-15T11:27:54.143Z,15.68
2019-02-15T11:30:41.392Z,14.75
2019-02-15T11:33:32.492Z,21.93
2019-02-15T11:36:14.703Z,17.02
2019-02-15T11:42:16.763Z,17.15
2019-02-15T11:45:00.442Z,18.32
2019-02-15T11:47:53.024Z,14.93
2019-02-15T11:50:37.271Z,13.72
2019-02-15T11:53:28.723Z,17.23
2019-02-15T11:56:12.830Z,14.87
2019-02-15T11:59:03.954Z,17.70
2019-02-15T12:01:48.776Z,10.40
2019-02-15T12:04:40.315Z,13.18
2019-02-15T12:07:24.197Z,15.85
2019-02-15T12:10:16.970Z,16.40
2019-02-15T12:13:00.487Z,22.73
2019-02-15T12:15:51.570Z,16.23
2019-02-15T12:18:23.554Z,19.35
2019-02-15T12:21:07.063Z,14.18
2019-02-15T12:23:51.023Z,15.32
2019-02-15T12:26:42.304Z,11.43
2019-02-15T12:29:26.605Z,11.65
2019-02-15T12:32:17.682Z,14.58
2019-02-15T12:35:02.101Z,14.63
2019-02-15T12:37:53.288Z,22.93
2019-02-15T12:40:25.389Z,13.75
2019-02-15T12:43:09.336Z,12.60
2019-02-15T12:46:00.519Z,14.98
2019-02-15T12:48:47.355Z,18.73
2019-02-15T12:51:38.707Z,14.40
2019-02-15T12:54:10.820Z,16.00
2019-02-15T12:56:54.295Z,14.80
2019-02-15T12:59:26.381Z,23.67
2019-02-15T13:02:17.543Z,12.43
2019-02-15T13:04:49.839Z,17.30
2019-02-15T13:07:33.839Z,12.63
2019-02-15T13:10:21.587Z,11.68
2019-02-15T13:13:06.027Z,13.03
2019-02-15T13:15:50.660Z,11.38
2019-02-15T13:18:35.835Z,13.30
2019-02-15T13:21:27.293Z,13.95
2019-02-15T13:24:12.449Z,11.90
2019-02-15T13:27:04.015Z,8.03
2019-02-15T13:29:47.752Z,13.28
2019-02-15T13:32:38.913Z,12.85
2019-02-15T13:35:23.060Z,9.55
2019-02-15T13:38:14.308Z,6.15
2019-02-15T13:40:58.315Z,9.83
2019-02-15T13:43:42.467Z,5.50
2019-02-15T13:46:26.638Z,3.85
2019-02-15T13:49:12.973Z,4.95
2019-02-15T13:52:03.854Z,5.22
2019-02-15T13:54:48.250Z,6.90
2019-02-15T13:57:39.541Z,4.87
2019-02-15T14:00:23.287Z,5.35
2019-02-15T14:03:14.454Z,6.22
2019-02-15T14:05:58.562Z,3.58
2019-02-15T14:08:30.838Z,6.80
2019-02-15T14:11:14.531Z,3.77
2019-02-15T14:14:05.672Z,5.90
2019-02-15T14:16:49.682Z,7.65
2019-02-15T14:19:40.938Z,3.92
2019-02-15T14:22:24.339Z,7.45
2019-02-15T14:25:08.512Z,4.20
2019-02-15T14:27:59.679Z,3.90
2019-02-15T14:30:44.033Z,6.83
2019-02-15T14:33:35.094Z,4.42
2019-02-15T14:36:19.114Z,3.87
2019-02-15T14:39:03.652Z,4.85
2019-02-15T14:41:56.335Z,3.33
2019-02-15T14:44:39.749Z,6.00
2019-02-15T14:47:23.070Z,5.80
2019-02-15T14:50:07.401Z,7.17
2019-02-15T14:52:58.600Z,2.52
2019-02-15T14:55:30.517Z,4.47
2019-02-15T14:58:14.506Z,2.95
2019-02-15T15:01:05.629Z,2.35
2019-02-15T15:03:49.253Z,3.05
2019-02-15T15:06:40.340Z,4.53
2019-02-15T15:09:24.312Z,4.05
2019-02-15T15:12:15.469Z,2.92
2019-02-15T15:14:58.849Z,4.10
2019-02-15T15:17:50.176Z,2.45
2019-02-15T15:20:34.368Z,2.77
2019-02-15T15:23:25.500Z,3.67
2019-02-15T15:26:11.886Z,2.75
2019-02-15T15:29:02.040Z,4.10
2019-02-15T15:31:44.392Z,3.60
2019-02-15T15:34:35.534Z,3.80
2019-02-15T15:37:23.671Z,5.33
2019-02-15T15:40:14.858Z,2.95
2019-02-15T15:42:59.122Z,2.62
2019-02-15T15:45:50.424Z,4.17
2019-02-15T15:48:34.337Z,4.12
2019-02-15T15:54:23.185Z,3.90
2019-02-15T15:57:14.329Z,5.15
2019-02-15T15:59:57.843Z,3.37
2019-02-15T16:02:48.974Z,3.33
2019-02-15T16:05:33.895Z,7.72
2019-02-15T16:08:25.078Z,6.80
2019-02-15T16:11:08.698Z,5.87
2019-02-15T16:13:59.789Z,8.18
2019-02-15T16:16:43.232Z,9.58
2019-02-15T16:19:40.519Z,7.60
2019-02-15T16:22:26.151Z,17.40
2019-02-15T16:25:18.182Z,7.20
2019-02-15T16:27:50.015Z,14.73
2019-02-15T16:30:41.371Z,7.03
2019-02-15T16:33:13.551Z,8.68
2019-02-15T16:35:58.630Z,14.33
2019-02-15T16:38:44.890Z,13.62
2019-02-15T16:41:50.009Z,14.33
2019-02-15T16:44:41.260Z,12.53
2019-02-15T16:47:50.583Z,11.88
2019-02-15T16:50:44.856Z,9.68
2019-02-15T16:53:28.811Z,9.88
2019-02-15T16:56:19.997Z,12.58
2019-02-15T16:59:04.090Z,8.95
2019-02-15T17:01:55.351Z,8.65
2019-02-15T17:04:39.112Z,18.10
2019-02-15T17:07:30.331Z,16.73
2019-02-15T17:10:14.107Z,22.75
2019-02-15T17:13:05.373Z,17.35
2019-02-15T17:15:48.954Z,19.27
2019-02-15T17:18:40.129Z,20.27
2019-02-15T17:21:26.419Z,15.65
2019-02-15T17:24:11.513Z,7.58
2019-02-15T17:27:02.777Z,10.48
2019-02-15T17:29:46.379Z,13.83
2019-02-15T17:32:30.566Z,14.03
2019-02-15T17:35:21.653Z,11.55
2019-02-15T17:38:05.835Z,9.70
2019-02-15T17:40:51.149Z,12.15
2019-02-15T17:43:34.820Z,10.18
2019-02-15T17:46:18.887Z,14.33
2019-02-15T17:49:09.956Z,10.28
2019-02-15T17:51:53.656Z,11.63
2019-02-15T17:54:44.747Z,14.40
2019-02-15T17:57:28.646Z,13.83
2019-02-15T18:03:16.518Z,9.55
2019-02-15T18:06:00.048Z,9.00
2019-02-15T18:08:52.089Z,8.90
2019-02-15T18:11:36.744Z,10.10
2019-02-15T18:14:22.592Z,9.80
2019-02-15T18:17:06.753Z,11.48
2019-02-15T18:19:58.021Z,13.48
2019-02-15T18:22:42.134Z,12.00
2019-02-15T18:25:33.347Z,10.60
2019-02-15T18:28:16.814Z,12.82
2019-02-15T18:31:07.946Z,13.55
2019-02-15T18:33:59.149Z,16.23
2019-02-15T18:36:31.189Z,12.85
2019-02-15T18:39:22.427Z,14.73
2019-02-15T18:42:06.380Z,12.20
2019-02-15T18:44:57.572Z,13.32
2019-02-15T18:50:42.806Z,17.92
2019-02-15T18:53:29.331Z,33.80
2019-02-15T18:56:20.484Z,39.63
2019-02-15T18:59:06.262Z,23.05
2019-02-15T19:01:57.651Z,21.87
2019-02-15T19:04:39.999Z,20.88
2019-02-15T19:07:34.512Z,20.65
2019-02-15T19:10:18.583Z,20.12
2019-02-15T19:13:21.013Z,20.90
2019-02-15T19:19:39.983Z,14.47
2019-02-15T19:22:31.079Z,12.63
2019-02-15T19:25:14.863Z,17.80
2019-02-15T19:28:06.190Z,21.17
2019-02-15T19:30:49.556Z,14.90
2019-02-15T19:33:40.854Z,16.77
2019-02-15T19:36:26.087Z,18.37
2019-02-15T19:39:01.322Z,18.25
2019-02-15T19:41:47.077Z,21.82
2019-02-15T19:44:38.211Z,20.20
2019-02-15T19:47:22.195Z,17.55
2019-02-15T19:53:27.123Z,17.82
2019-02-15T19:59:41.307Z,33.92
2019-02-15T20:02:32.611Z,19.35
2019-02-15T20:05:16.427Z,17.92
2019-02-15T20:08:07.589Z,23.05
2019-02-15T20:10:39.609Z,20.50
2019-02-15T20:13:23.656Z,18.25
2019-02-15T20:15:55.600Z,19.27
2019-02-15T20:18:39.204Z,16.07
2019-02-15T20:21:30.435Z,25.40
2019-02-15T20:24:14.633Z,21.42
2019-02-15T20:26:58.825Z,19.85
2019-02-15T20:29:50.038Z,16.82
2019-02-15T20:32:34.000Z,18.92
2019-02-15T20:35:25.205Z,19.62
2019-02-15T20:38:10.405Z,25.62
2019-02-15T20:41:01.543Z,22.32
2019-02-15T20:43:45.390Z,19.75
2019-02-15T20:46:36.494Z,22.50
2019-02-15T20:49:20.395Z,20.25
2019-02-15T20:52:03.898Z,23.22
2019-02-15T20:54:54.987Z,21.77
2019-02-15T20:57:39.044Z,19.30
2019-02-15T21:00:23.250Z,27.13
2019-02-15T21:03:14.438Z,23.52
2019-02-15T21:05:57.962Z,21.30
2019-02-15T21:08:49.567Z,18.50
2019-02-15T21:11:33.342Z,20.62
2019-02-15T21:14:24.649Z,17.48
2019-02-15T21:17:08.372Z,23.95
2019-02-15T21:20:07.386Z,21.90
2019-02-15T21:23:04.173Z,15.90
2019-02-15T21:25:55.306Z,20.37
2019-02-15T21:28:39.068Z,19.17
2019-02-15T21:31:22.001Z,17.80
2019-02-15T21:34:05.340Z,26.00
2019-02-15T21:36:56.511Z,28.27
2019-02-15T21:39:28.407Z,19.12
2019-02-15T21:42:00.716Z,21.55
2019-02-15T21:44:45.082Z,23.18
2019-02-15T21:47:37.121Z,22.85
2019-02-15T21:50:21.371Z,17.73
2019-02-15T21:53:12.598Z,17.55
2019-02-15T21:55:56.253Z,20.37
2019-02-15T21:58:47.682Z,27.55
2019-02-15T22:01:31.679Z,23.25
2019-02-15T22:04:22.798Z,22.93
2019-02-15T22:06:54.808Z,20.85
2019-02-15T22:09:46.070Z,21.68
2019-02-15T22:12:29.898Z,17.98
2019-02-15T22:15:21.160Z,22.55
2019-02-15T22:18:04.819Z,22.27
2019-02-15T22:20:56.088Z,23.73
2019-02-15T22:23:28.087Z,24.18
2019-02-15T22:26:00.110Z,23.00
2019-02-15T22:28:34.248Z,22.67
2019-02-15T22:31:25.520Z,21.15
2019-02-15T22:33:57.448Z,25.15
2019-02-15T22:36:48.552Z,21.20
2019-02-15T22:39:33.420Z,21.40
2019-02-15T22:42:24.616Z,22.32
2019-02-15T22:45:06.906Z,23.05
2019-02-15T22:47:58.013Z,20.68
2019-02-15T22:50:41.679Z,23.25
2019-02-15T22:53:32.885Z,23.40
2019-02-15T22:56:16.805Z,21.12
2019-02-15T22:59:07.942Z,23.07
2019-02-15T23:01:51.595Z,17.82
2019-02-15T23:04:42.735Z,23.92
2019-02-15T23:07:26.909Z,24.43
2019-02-15T23:10:18.095Z,18.67
2019-02-15T23:13:02.164Z,30.62
2019-02-15T23:15:53.459Z,20.30
2019-02-15T23:18:41.949Z,21.85
2019-02-15T23:21:33.181Z,23.75
2019-02-15T23:24:16.618Z,18.57
2019-02-15T23:27:07.849Z,18.80
2019-02-15T23:29:51.513Z,27.37
2019-02-15T23:32:42.833Z,25.25
2019-02-15T23:35:26.351Z,24.72
2019-02-15T23:38:17.499Z,31.85
2019-02-15T23:41:01.350Z,30.27
2019-02-15T23:43:45.549Z,20.95
2019-02-15T23:46:29.700Z,22.48
2019-02-15T23:49:20.934Z,23.42
2019-02-15T23:52:03.203Z,20.17
2019-02-15T23:54:54.271Z,20.82
2019-02-15T23:57:38.447Z,22.95
